Terminal Aerodrome Forecast
Issued by NWS

Home | Current Version | Previous Version | Graphics & Text | Print | Product List | Glossary On
Versions: 1 2 3 4 5 6 7 8 9 10 11 12 13 14 15
000
FTUS43 KFGF 141120
TAFBJI
TAF
KBJI 141120Z 1412/1512 VRB03KT P6SM BKN250
     FM141600 09006KT P6SM BKN120
     FM142000 05006KT P6SM OVC070
     FM150100 01006KT P6SM OVC060
     FM150700 31007KT P6SM SKC=

USA.gov is the U.S. government's official web portal to all federal, state and local government web resources and services.